sensor_id;sensor_type;location;lat;lon;timestamp;P1;durP1;ratioP1;P2;durP2;ratioP2
73120;SDS011;61307;49.628;-1.624;2024-01-30T00:01:08;5.65;;;2.80;;
73120;SDS011;61307;49.628;-1.624;2024-01-30T00:03:34;5.93;;;2.72;;
73120;SDS011;61307;49.628;-1.624;2024-01-30T00:06:02;5.88;;;2.67;;
73120;SDS011;61307;49.628;-1.624;2024-01-30T00:08:31;6.53;;;2.35;;
73120;SDS011;61307;49.628;-1.624;2024-01-30T00:10:58;5.45;;;2.35;;
73120;SDS011;61307;49.628;-1.624;2024-01-30T00:13:24;4.97;;;2.30;;
73120;SDS011;61307;49.628;-1.624;2024-01-30T00:15:52;6.38;;;2.20;;
73120;SDS011;61307;49.628;-1.624;2024-01-30T00:18:18;5.97;;;2.15;;
73120;SDS011;61307;49.628;-1.624;2024-01-30T00:20:46;2.95;;;1.98;;
73120;SDS011;61307;49.628;-1.624;2024-01-30T00:23:13;6.03;;;2.10;;
73120;SDS011;61307;49.628;-1.624;2024-01-30T00:25:41;4.15;;;2.15;;
73120;SDS011;61307;49.628;-1.624;2024-01-30T00:28:08;3.55;;;1.95;;
73120;SDS011;61307;49.628;-1.624;2024-01-30T00:30:35;5.63;;;2.00;;
73120;SDS011;61307;49.628;-1.624;2024-01-30T00:33:02;5.63;;;2.03;;
73120;SDS011;61307;49.628;-1.624;2024-01-30T00:35:29;5.45;;;1.80;;
73120;SDS011;61307;49.628;-1.624;2024-01-30T00:37:56;5.40;;;2.22;;
73120;SDS011;61307;49.628;-1.624;2024-01-30T00:40:23;5.43;;;1.92;;
73120;SDS011;61307;49.628;-1.624;2024-01-30T00:42:51;3.58;;;1.63;;
73120;SDS011;61307;49.628;-1.624;2024-01-30T00:45:18;4.10;;;1.73;;
73120;SDS011;61307;49.628;-1.624;2024-01-30T00:47:45;4.25;;;2.05;;
73120;SDS011;61307;49.628;-1.624;2024-01-30T00:50:12;3.13;;;1.70;;
73120;SDS011;61307;49.628;-1.624;2024-01-30T00:52:39;4.68;;;1.67;;
73120;SDS011;61307;49.628;-1.624;2024-01-30T00:55:07;3.40;;;1.77;;
73120;SDS011;61307;49.628;-1.624;2024-01-30T00:57:33;5.30;;;1.83;;
73120;SDS011;61307;49.628;-1.624;2024-01-30T01:00:02;3.60;;;1.52;;
73120;SDS011;61307;49.628;-1.624;2024-01-30T01:02:31;4.85;;;1.80;;
73120;SDS011;61307;49.628;-1.624;2024-01-30T01:04:58;3.65;;;1.42;;
73120;SDS011;61307;49.628;-1.624;2024-01-30T01:07:25;2.97;;;1.63;;
73120;SDS011;61307;49.628;-1.624;2024-01-30T01:09:52;3.03;;;1.45;;
73120;SDS011;61307;49.628;-1.624;2024-01-30T01:12:18;3.97;;;1.45;;
73120;SDS011;61307;49.628;-1.624;2024-01-30T01:14:45;3.53;;;1.55;;
73120;SDS011;61307;49.628;-1.624;2024-01-30T01:17:13;2.53;;;1.30;;
73120;SDS011;61307;49.628;-1.624;2024-01-30T01:19:40;2.40;;;1.30;;
73120;SDS011;61307;49.628;-1.624;2024-01-30T01:22:07;6.53;;;1.70;;
73120;SDS011;61307;49.628;-1.624;2024-01-30T01:24:35;3.53;;;1.40;;
73120;SDS011;61307;49.628;-1.624;2024-01-30T01:27:02;3.42;;;1.92;;
73120;SDS011;61307;49.628;-1.624;2024-01-30T01:29:29;3.88;;;1.35;;
73120;SDS011;61307;49.628;-1.624;2024-01-30T01:31:57;2.53;;;1.20;;
73120;SDS011;61307;49.628;-1.624;2024-01-30T01:34:25;2.65;;;1.40;;
73120;SDS011;61307;49.628;-1.624;2024-01-30T01:36:52;4.22;;;1.40;;
73120;SDS011;61307;49.628;-1.624;2024-01-30T01:39:20;3.42;;;1.20;;
73120;SDS011;61307;49.628;-1.624;2024-01-30T01:41:48;2.72;;;1.40;;
73120;SDS011;61307;49.628;-1.624;2024-01-30T01:44:15;2.92;;;1.17;;
73120;SDS011;61307;49.628;-1.624;2024-01-30T01:46:41;4.57;;;1.40;;
73120;SDS011;61307;49.628;-1.624;2024-01-30T01:49:09;3.28;;;1.00;;
73120;SDS011;61307;49.628;-1.624;2024-01-30T01:51:36;3.55;;;1.35;;
73120;SDS011;61307;49.628;-1.624;2024-01-30T01:54:06;2.95;;;1.08;;
73120;SDS011;61307;49.628;-1.624;2024-01-30T01:56:33;5.00;;;1.27;;
73120;SDS011;61307;49.628;-1.624;2024-01-30T01:59:04;3.72;;;1.23;;
73120;SDS011;61307;49.628;-1.624;2024-01-30T02:01:32;2.22;;;1.27;;
73120;SDS011;61307;49.628;-1.624;2024-01-30T02:04:00;2.15;;;1.13;;
73120;SDS011;61307;49.628;-1.624;2024-01-30T02:06:27;2.67;;;1.08;;
73120;SDS011;61307;49.628;-1.624;2024-01-30T02:08:55;2.30;;;0.88;;
73120;SDS011;61307;49.628;-1.624;2024-01-30T02:11:22;2.40;;;1.00;;
73120;SDS011;61307;49.628;-1.624;2024-01-30T02:13:50;2.55;;;1.00;;
73120;SDS011;61307;49.628;-1.624;2024-01-30T02:16:17;2.88;;;1.08;;
73120;SDS011;61307;49.628;-1.624;2024-01-30T02:18:43;2.63;;;0.93;;
73120;SDS011;61307;49.628;-1.624;2024-01-30T02:21:14;3.65;;;1.10;;
73120;SDS011;61307;49.628;-1.624;2024-01-30T02:23:42;2.45;;;1.08;;
73120;SDS011;61307;49.628;-1.624;2024-01-30T02:26:09;2.50;;;0.90;;
73120;SDS011;61307;49.628;-1.624;2024-01-30T02:28:37;2.83;;;0.90;;
73120;SDS011;61307;49.628;-1.624;2024-01-30T02:31:03;2.70;;;0.90;;
73120;SDS011;61307;49.628;-1.624;2024-01-30T02:33:31;1.33;;;0.77;;
73120;SDS011;61307;49.628;-1.624;2024-01-30T02:35:58;3.17;;;1.08;;
73120;SDS011;61307;49.628;-1.624;2024-01-30T02:38:26;2.17;;;0.93;;
73120;SDS011;61307;49.628;-1.624;2024-01-30T02:40:54;2.20;;;1.00;;
73120;SDS011;61307;49.628;-1.624;2024-01-30T02:43:21;2.80;;;0.80;;
73120;SDS011;61307;49.628;-1.624;2024-01-30T02:45:49;1.10;;;0.70;;
73120;SDS011;61307;49.628;-1.624;2024-01-30T02:48:16;3.13;;;1.35;;
73120;SDS011;61307;49.628;-1.624;2024-01-30T02:50:43;2.03;;;0.93;;
73120;SDS011;61307;49.628;-1.624;2024-01-30T02:53:11;1.67;;;0.77;;
73120;SDS011;61307;49.628;-1.624;2024-01-30T02:55:39;1.88;;;0.73;;
73120;SDS011;61307;49.628;-1.624;2024-01-30T02:58:06;1.55;;;0.65;;
73120;SDS011;61307;49.628;-1.624;2024-01-30T03:00:32;1.55;;;0.82;;
73120;SDS011;61307;49.628;-1.624;2024-01-30T03:03:00;2.42;;;0.80;;
73120;SDS011;61307;49.628;-1.624;2024-01-30T03:05:27;2.42;;;1.15;;
73120;SDS011;61307;49.628;-1.624;2024-01-30T03:07:53;2.05;;;0.80;;
73120;SDS011;61307;49.628;-1.624;2024-01-30T03:10:20;2.47;;;0.95;;
73120;SDS011;61307;49.628;-1.624;2024-01-30T03:12:49;1.17;;;0.80;;
73120;SDS011;61307;49.628;-1.624;2024-01-30T03:15:15;2.60;;;1.05;;
73120;SDS011;61307;49.628;-1.624;2024-01-30T03:17:42;3.38;;;1.15;;
73120;SDS011;61307;49.628;-1.624;2024-01-30T03:20:10;2.13;;;0.80;;
73120;SDS011;61307;49.628;-1.624;2024-01-30T03:22:37;2.10;;;0.60;;
73120;SDS011;61307;49.628;-1.624;2024-01-30T03:25:04;2.40;;;0.80;;
73120;SDS011;61307;49.628;-1.624;2024-01-30T03:27:31;4.40;;;1.02;;
73120;SDS011;61307;49.628;-1.624;2024-01-30T03:29:59;1.92;;;0.80;;
73120;SDS011;61307;49.628;-1.624;2024-01-30T03:32:26;2.83;;;0.98;;
73120;SDS011;61307;49.628;-1.624;2024-01-30T03:34:53;2.35;;;0.90;;
73120;SDS011;61307;49.628;-1.624;2024-01-30T03:37:20;2.75;;;0.80;;
73120;SDS011;61307;49.628;-1.624;2024-01-30T03:39:47;2.22;;;0.70;;
73120;SDS011;61307;49.628;-1.624;2024-01-30T03:42:14;3.90;;;0.88;;
73120;SDS011;61307;49.628;-1.624;2024-01-30T03:44:41;1.63;;;0.70;;
73120;SDS011;61307;49.628;-1.624;2024-01-30T03:47:10;2.47;;;0.80;;
73120;SDS011;61307;49.628;-1.624;2024-01-30T03:49:37;1.95;;;0.80;;
73120;SDS011;61307;49.628;-1.624;2024-01-30T03:52:03;2.38;;;0.93;;
73120;SDS011;61307;49.628;-1.624;2024-01-30T03:54:31;1.50;;;0.63;;
73120;SDS011;61307;49.628;-1.624;2024-01-30T03:56:57;1.80;;;0.70;;
73120;SDS011;61307;49.628;-1.624;2024-01-30T03:59:24;1.77;;;0.80;;
73120;SDS011;61307;49.628;-1.624;2024-01-30T04:01:51;1.85;;;0.93;;
73120;SDS011;61307;49.628;-1.624;2024-01-30T04:04:19;1.92;;;0.68;;
73120;SDS011;61307;49.628;-1.624;2024-01-30T04:06:46;2.85;;;0.90;;
73120;SDS011;61307;49.628;-1.624;2024-01-30T04:09:13;3.08;;;1.02;;
73120;SDS011;61307;49.628;-1.624;2024-01-30T04:11:40;3.13;;;0.88;;
73120;SDS011;61307;49.628;-1.624;2024-01-30T04:14:07;2.85;;;0.98;;
73120;SDS011;61307;49.628;-1.624;2024-01-30T04:16:35;2.38;;;0.63;;
73120;SDS011;61307;49.628;-1.624;2024-01-30T04:19:02;2.63;;;0.80;;
73120;SDS011;61307;49.628;-1.624;2024-01-30T04:21:30;2.35;;;0.70;;
73120;SDS011;61307;49.628;-1.624;2024-01-30T04:23:57;2.00;;;0.70;;
73120;SDS011;61307;49.628;-1.624;2024-01-30T04:26:24;2.47;;;0.90;;
73120;SDS011;61307;49.628;-1.624;2024-01-30T04:28:51;1.58;;;0.70;;
73120;SDS011;61307;49.628;-1.624;2024-01-30T04:31:18;2.92;;;0.70;;
73120;SDS011;61307;49.628;-1.624;2024-01-30T04:33:45;1.88;;;0.93;;
73120;SDS011;61307;49.628;-1.624;2024-01-30T04:36:11;3.15;;;0.80;;
73120;SDS011;61307;49.628;-1.624;2024-01-30T04:38:40;3.22;;;0.80;;
73120;SDS011;61307;49.628;-1.624;2024-01-30T04:41:06;2.38;;;0.80;;
73120;SDS011;61307;49.628;-1.624;2024-01-30T04:43:33;1.67;;;0.77;;
73120;SDS011;61307;49.628;-1.624;2024-01-30T04:46:01;5.03;;;0.90;;
73120;SDS011;61307;49.628;-1.624;2024-01-30T04:48:27;2.38;;;0.88;;
73120;SDS011;61307;49.628;-1.624;2024-01-30T04:50:54;3.33;;;0.95;;
73120;SDS011;61307;49.628;-1.624;2024-01-30T04:53:21;2.80;;;0.75;;
73120;SDS011;61307;49.628;-1.624;2024-01-30T04:55:49;3.72;;;0.80;;
73120;SDS011;61307;49.628;-1.624;2024-01-30T04:58:16;2.45;;;0.70;;
73120;SDS011;61307;49.628;-1.624;2024-01-30T05:00:43;2.40;;;0.90;;
73120;SDS011;61307;49.628;-1.624;2024-01-30T05:03:11;2.88;;;0.80;;
73120;SDS011;61307;49.628;-1.624;2024-01-30T05:05:38;2.10;;;0.70;;
73120;SDS011;61307;49.628;-1.624;2024-01-30T05:08:05;1.70;;;0.88;;
73120;SDS011;61307;49.628;-1.624;2024-01-30T05:10:32;3.03;;;0.93;;
73120;SDS011;61307;49.628;-1.624;2024-01-30T05:13:00;3.60;;;1.00;;
73120;SDS011;61307;49.628;-1.624;2024-01-30T05:15:27;2.58;;;1.02;;
73120;SDS011;61307;49.628;-1.624;2024-01-30T05:17:54;3.35;;;0.80;;
73120;SDS011;61307;49.628;-1.624;2024-01-30T05:20:21;2.88;;;0.88;;
73120;SDS011;61307;49.628;-1.624;2024-01-30T05:22:48;3.03;;;0.85;;
73120;SDS011;61307;49.628;-1.624;2024-01-30T05:25:15;3.28;;;0.95;;
73120;SDS011;61307;49.628;-1.624;2024-01-30T05:27:41;2.20;;;0.80;;
73120;SDS011;61307;49.628;-1.624;2024-01-30T05:30:10;1.95;;;0.82;;
73120;SDS011;61307;49.628;-1.624;2024-01-30T05:32:38;3.13;;;0.95;;
73120;SDS011;61307;49.628;-1.624;2024-01-30T05:35:04;2.40;;;0.85;;
73120;SDS011;61307;49.628;-1.624;2024-01-30T05:37:32;1.17;;;0.85;;
73120;SDS011;61307;49.628;-1.624;2024-01-30T05:39:59;1.92;;;0.75;;
73120;SDS011;61307;49.628;-1.624;2024-01-30T05:42:26;3.30;;;0.95;;
73120;SDS011;61307;49.628;-1.624;2024-01-30T05:44:53;4.20;;;1.00;;
73120;SDS011;61307;49.628;-1.624;2024-01-30T05:47:21;2.10;;;0.90;;
73120;SDS011;61307;49.628;-1.624;2024-01-30T05:49:48;1.48;;;0.82;;
73120;SDS011;61307;49.628;-1.624;2024-01-30T05:52:15;2.00;;;0.85;;
73120;SDS011;61307;49.628;-1.624;2024-01-30T05:54:43;2.30;;;0.98;;
73120;SDS011;61307;49.628;-1.624;2024-01-30T05:57:10;3.30;;;0.95;;
73120;SDS011;61307;49.628;-1.624;2024-01-30T05:59:37;3.17;;;0.98;;
73120;SDS011;61307;49.628;-1.624;2024-01-30T06:02:04;2.60;;;0.93;;
73120;SDS011;61307;49.628;-1.624;2024-01-30T06:04:32;1.50;;;0.75;;
73120;SDS011;61307;49.628;-1.624;2024-01-30T06:06:59;2.33;;;1.00;;
73120;SDS011;61307;49.628;-1.624;2024-01-30T06:09:27;3.28;;;1.15;;
73120;SDS011;61307;49.628;-1.624;2024-01-30T06:11:54;3.33;;;1.10;;
73120;SDS011;61307;49.628;-1.624;2024-01-30T06:14:21;3.25;;;1.10;;
73120;SDS011;61307;49.628;-1.624;2024-01-30T06:16:48;2.58;;;0.77;;
73120;SDS011;61307;49.628;-1.624;2024-01-30T06:19:15;2.08;;;0.70;;
73120;SDS011;61307;49.628;-1.624;2024-01-30T06:21:43;1.55;;;0.80;;
73120;SDS011;61307;49.628;-1.624;2024-01-30T06:24:10;4.05;;;0.90;;
73120;SDS011;61307;49.628;-1.624;2024-01-30T06:26:37;3.60;;;1.10;;
73120;SDS011;61307;49.628;-1.624;2024-01-30T06:29:04;3.28;;;0.90;;
73120;SDS011;61307;49.628;-1.624;2024-01-30T06:31:32;1.77;;;0.75;;
73120;SDS011;61307;49.628;-1.624;2024-01-30T06:33:59;3.95;;;0.80;;
73120;SDS011;61307;49.628;-1.624;2024-01-30T06:36:26;2.92;;;1.02;;
73120;SDS011;61307;49.628;-1.624;2024-01-30T06:38:54;3.75;;;0.80;;
73120;SDS011;61307;49.628;-1.624;2024-01-30T06:41:21;1.15;;;0.70;;
73120;SDS011;61307;49.628;-1.624;2024-01-30T06:43:48;3.15;;;0.85;;
73120;SDS011;61307;49.628;-1.624;2024-01-30T06:46:15;3.00;;;1.10;;
73120;SDS011;61307;49.628;-1.624;2024-01-30T06:48:42;3.50;;;0.88;;
73120;SDS011;61307;49.628;-1.624;2024-01-30T06:51:09;2.63;;;1.00;;
73120;SDS011;61307;49.628;-1.624;2024-01-30T06:53:37;3.03;;;0.90;;
73120;SDS011;61307;49.628;-1.624;2024-01-30T06:56:05;2.35;;;1.00;;
73120;SDS011;61307;49.628;-1.624;2024-01-30T06:58:32;4.63;;;0.98;;
73120;SDS011;61307;49.628;-1.624;2024-01-30T07:00:59;3.45;;;0.90;;
73120;SDS011;61307;49.628;-1.624;2024-01-30T07:03:27;2.67;;;0.60;;
73120;SDS011;61307;49.628;-1.624;2024-01-30T07:05:54;2.78;;;1.02;;
73120;SDS011;61307;49.628;-1.624;2024-01-30T07:08:20;4.13;;;0.90;;
73120;SDS011;61307;49.628;-1.624;2024-01-30T07:10:47;1.60;;;0.90;;
73120;SDS011;61307;49.628;-1.624;2024-01-30T07:13:16;3.28;;;0.80;;
73120;SDS011;61307;49.628;-1.624;2024-01-30T07:15:43;6.88;;;1.23;;
73120;SDS011;61307;49.628;-1.624;2024-01-30T07:18:10;2.25;;;0.80;;
73120;SDS011;61307;49.628;-1.624;2024-01-30T07:20:39;3.72;;;1.00;;
73120;SDS011;61307;49.628;-1.624;2024-01-30T07:23:11;1.85;;;0.73;;
73120;SDS011;61307;49.628;-1.624;2024-01-30T07:25:39;4.20;;;1.10;;
73120;SDS011;61307;49.628;-1.624;2024-01-30T07:28:06;2.10;;;0.95;;
73120;SDS011;61307;49.628;-1.624;2024-01-30T07:30:35;2.72;;;0.98;;
73120;SDS011;61307;49.628;-1.624;2024-01-30T07:33:02;2.85;;;1.20;;
73120;SDS011;61307;49.628;-1.624;2024-01-30T07:35:29;2.65;;;1.00;;
73120;SDS011;61307;49.628;-1.624;2024-01-30T07:37:56;2.33;;;1.00;;
73120;SDS011;61307;49.628;-1.624;2024-01-30T07:40:23;3.10;;;0.90;;
73120;SDS011;61307;49.628;-1.624;2024-01-30T07:42:50;3.33;;;1.30;;
73120;SDS011;61307;49.628;-1.624;2024-01-30T07:45:19;1.75;;;0.80;;
73120;SDS011;61307;49.628;-1.624;2024-01-30T07:47:50;2.78;;;0.93;;
73120;SDS011;61307;49.628;-1.624;2024-01-30T07:50:17;3.75;;;1.17;;
73120;SDS011;61307;49.628;-1.624;2024-01-30T07:52:45;3.95;;;1.05;;
73120;SDS011;61307;49.628;-1.624;2024-01-30T07:58:19;3.63;;;0.95;;
73120;SDS011;61307;49.628;-1.624;2024-01-30T08:00:46;5.57;;;1.48;;
73120;SDS011;61307;49.628;-1.624;2024-01-30T08:03:14;3.78;;;1.10;;
73120;SDS011;61307;49.628;-1.624;2024-01-30T08:05:43;7.03;;;1.10;;
73120;SDS011;61307;49.628;-1.624;2024-01-30T08:08:10;2.47;;;0.98;;
73120;SDS011;61307;49.628;-1.624;2024-01-30T08:10:37;4.55;;;1.50;;
73120;SDS011;61307;49.628;-1.624;2024-01-30T08:13:03;3.92;;;1.10;;
73120;SDS011;61307;49.628;-1.624;2024-01-30T08:15:30;5.22;;;1.00;;
73120;SDS011;61307;49.628;-1.624;2024-01-30T08:17:57;5.10;;;1.10;;
73120;SDS011;61307;49.628;-1.624;2024-01-30T08:20:25;2.22;;;0.90;;
73120;SDS011;61307;49.628;-1.624;2024-01-30T08:22:52;6.45;;;1.20;;
73120;SDS011;61307;49.628;-1.624;2024-01-30T08:25:20;7.55;;;1.08;;
73120;SDS011;61307;49.628;-1.624;2024-01-30T08:27:47;2.22;;;0.80;;
73120;SDS011;61307;49.628;-1.624;2024-01-30T08:30:14;4.15;;;1.13;;
73120;SDS011;61307;49.628;-1.624;2024-01-30T08:32:41;4.88;;;1.25;;
73120;SDS011;61307;49.628;-1.624;2024-01-30T08:35:08;2.40;;;0.80;;
73120;SDS011;61307;49.628;-1.624;2024-01-30T08:37:36;2.65;;;1.10;;
73120;SDS011;61307;49.628;-1.624;2024-01-30T08:40:03;2.78;;;0.90;;
73120;SDS011;61307;49.628;-1.624;2024-01-30T08:42:31;6.35;;;1.30;;
73120;SDS011;61307;49.628;-1.624;2024-01-30T08:45:01;2.28;;;1.10;;
73120;SDS011;61307;49.628;-1.624;2024-01-30T08:47:30;8.50;;;1.08;;
73120;SDS011;61307;49.628;-1.624;2024-01-30T08:49:58;2.97;;;1.10;;
73120;SDS011;61307;49.628;-1.624;2024-01-30T08:52:25;3.47;;;0.90;;
73120;SDS011;61307;49.628;-1.624;2024-01-30T08:54:54;4.53;;;1.40;;
73120;SDS011;61307;49.628;-1.624;2024-01-30T08:57:21;4.93;;;1.10;;
73120;SDS011;61307;49.628;-1.624;2024-01-30T08:59:47;3.53;;;1.10;;
73120;SDS011;61307;49.628;-1.624;2024-01-30T09:02:14;4.93;;;1.20;;
73120;SDS011;61307;49.628;-1.624;2024-01-30T09:04:43;5.75;;;1.20;;
73120;SDS011;61307;49.628;-1.624;2024-01-30T09:07:10;4.75;;;0.85;;
73120;SDS011;61307;49.628;-1.624;2024-01-30T09:09:38;6.20;;;1.08;;
73120;SDS011;61307;49.628;-1.624;2024-01-30T09:12:08;3.38;;;1.10;;
73120;SDS011;61307;49.628;-1.624;2024-01-30T09:14:38;5.97;;;1.23;;
73120;SDS011;61307;49.628;-1.624;2024-01-30T09:17:05;3.50;;;1.20;;
73120;SDS011;61307;49.628;-1.624;2024-01-30T09:19:33;5.22;;;1.00;;
73120;SDS011;61307;49.628;-1.624;2024-01-30T09:22:00;4.07;;;1.40;;
73120;SDS011;61307;49.628;-1.624;2024-01-30T09:24:27;6.00;;;1.40;;
73120;SDS011;61307;49.628;-1.624;2024-01-30T09:26:54;4.38;;;1.10;;
73120;SDS011;61307;49.628;-1.624;2024-01-30T09:29:22;5.20;;;1.30;;
73120;SDS011;61307;49.628;-1.624;2024-01-30T09:31:49;8.30;;;1.38;;
73120;SDS011;61307;49.628;-1.624;2024-01-30T09:34:16;5.00;;;1.48;;
73120;SDS011;61307;49.628;-1.624;2024-01-30T09:36:43;4.88;;;1.30;;
73120;SDS011;61307;49.628;-1.624;2024-01-30T09:39:11;4.32;;;1.50;;
73120;SDS011;61307;49.628;-1.624;2024-01-30T09:41:43;8.55;;;1.10;;
73120;SDS011;61307;49.628;-1.624;2024-01-30T09:47:42;7.25;;;1.13;;
73120;SDS011;61307;49.628;-1.624;2024-01-30T09:50:09;4.82;;;1.20;;
73120;SDS011;61307;49.628;-1.624;2024-01-30T09:52:38;5.55;;;1.00;;
73120;SDS011;61307;49.628;-1.624;2024-01-30T09:55:06;5.32;;;1.10;;
73120;SDS011;61307;49.628;-1.624;2024-01-30T09:57:34;6.60;;;1.60;;
73120;SDS011;61307;49.628;-1.624;2024-01-30T10:00:07;4.30;;;1.25;;
73120;SDS011;61307;49.628;-1.624;2024-01-30T10:02:35;4.40;;;1.25;;
73120;SDS011;61307;49.628;-1.624;2024-01-30T10:05:03;5.00;;;1.20;;
73120;SDS011;61307;49.628;-1.624;2024-01-30T10:07:32;5.57;;;1.45;;
73120;SDS011;61307;49.628;-1.624;2024-01-30T10:10:00;1.80;;;1.02;;
73120;SDS011;61307;49.628;-1.624;2024-01-30T10:12:29;4.97;;;1.10;;
73120;SDS011;61307;49.628;-1.624;2024-01-30T10:14:56;6.38;;;1.27;;
73120;SDS011;61307;49.628;-1.624;2024-01-30T10:17:25;4.60;;;1.10;;
73120;SDS011;61307;49.628;-1.624;2024-01-30T10:19:54;3.33;;;1.33;;
73120;SDS011;61307;49.628;-1.624;2024-01-30T10:22:21;7.15;;;1.33;;
73120;SDS011;61307;49.628;-1.624;2024-01-30T10:24:48;3.55;;;1.10;;
73120;SDS011;61307;49.628;-1.624;2024-01-30T10:27:15;4.30;;;1.17;;
73120;SDS011;61307;49.628;-1.624;2024-01-30T10:29:42;5.07;;;1.00;;
73120;SDS011;61307;49.628;-1.624;2024-01-30T10:32:09;4.70;;;1.33;;
73120;SDS011;61307;49.628;-1.624;2024-01-30T10:34:37;6.20;;;1.58;;
73120;SDS011;61307;49.628;-1.624;2024-01-30T10:37:07;5.25;;;1.05;;
73120;SDS011;61307;49.628;-1.624;2024-01-30T10:39:38;2.92;;;1.20;;
73120;SDS011;61307;49.628;-1.624;2024-01-30T10:42:05;3.75;;;1.20;;
73120;SDS011;61307;49.628;-1.624;2024-01-30T10:44:36;3.40;;;1.13;;
73120;SDS011;61307;49.628;-1.624;2024-01-30T10:47:11;6.93;;;1.20;;
73120;SDS011;61307;49.628;-1.624;2024-01-30T10:49:41;8.63;;;1.55;;
73120;SDS011;61307;49.628;-1.624;2024-01-30T10:52:09;5.30;;;1.40;;
73120;SDS011;61307;49.628;-1.624;2024-01-30T10:54:38;3.63;;;1.45;;
73120;SDS011;61307;49.628;-1.624;2024-01-30T10:57:09;5.10;;;1.23;;
73120;SDS011;61307;49.628;-1.624;2024-01-30T10:59:37;4.53;;;1.27;;
73120;SDS011;61307;49.628;-1.624;2024-01-30T11:02:05;2.78;;;1.25;;
73120;SDS011;61307;49.628;-1.624;2024-01-30T11:04:36;7.60;;;1.40;;
73120;SDS011;61307;49.628;-1.624;2024-01-30T11:07:14;4.15;;;1.10;;
73120;SDS011;61307;49.628;-1.624;2024-01-30T11:09:48;3.50;;;1.17;;
73120;SDS011;61307;49.628;-1.624;2024-01-30T11:12:16;5.90;;;1.40;;
73120;SDS011;61307;49.628;-1.624;2024-01-30T11:14:43;4.47;;;1.35;;
73120;SDS011;61307;49.628;-1.624;2024-01-30T11:17:10;7.63;;;1.45;;
73120;SDS011;61307;49.628;-1.624;2024-01-30T11:19:38;3.63;;;1.23;;
73120;SDS011;61307;49.628;-1.624;2024-01-30T11:22:07;7.57;;;1.10;;
73120;SDS011;61307;49.628;-1.624;2024-01-30T11:24:39;8.82;;;1.20;;
73120;SDS011;61307;49.628;-1.624;2024-01-30T11:27:08;4.10;;;1.20;;
73120;SDS011;61307;49.628;-1.624;2024-01-30T11:29:35;4.22;;;1.10;;
73120;SDS011;61307;49.628;-1.624;2024-01-30T11:32:02;3.58;;;1.00;;
73120;SDS011;61307;49.628;-1.624;2024-01-30T11:34:30;4.90;;;1.17;;
73120;SDS011;61307;49.628;-1.624;2024-01-30T11:37:01;3.75;;;1.30;;
73120;SDS011;61307;49.628;-1.624;2024-01-30T11:39:35;2.35;;;1.33;;
73120;SDS011;61307;49.628;-1.624;2024-01-30T11:42:06;5.25;;;1.45;;
73120;SDS011;61307;49.628;-1.624;2024-01-30T11:44:34;3.45;;;1.10;;
73120;SDS011;61307;49.628;-1.624;2024-01-30T11:47:01;10.30;;;1.30;;
73120;SDS011;61307;49.628;-1.624;2024-01-30T11:49:29;4.78;;;1.13;;
73120;SDS011;61307;49.628;-1.624;2024-01-30T11:51:56;4.22;;;1.33;;
73120;SDS011;61307;49.628;-1.624;2024-01-30T11:54:23;3.28;;;1.10;;
73120;SDS011;61307;49.628;-1.624;2024-01-30T11:56:50;3.30;;;1.00;;
73120;SDS011;61307;49.628;-1.624;2024-01-30T11:59:19;4.00;;;1.35;;
73120;SDS011;61307;49.628;-1.624;2024-01-30T12:01:45;3.00;;;1.20;;
73120;SDS011;61307;49.628;-1.624;2024-01-30T12:04:13;4.70;;;1.60;;
73120;SDS011;61307;49.628;-1.624;2024-01-30T12:06:40;3.50;;;1.15;;
73120;SDS011;61307;49.628;-1.624;2024-01-30T12:09:08;3.03;;;1.17;;
73120;SDS011;61307;49.628;-1.624;2024-01-30T12:11:47;6.00;;;1.45;;
73120;SDS011;61307;49.628;-1.624;2024-01-30T12:14:15;3.75;;;1.10;;
73120;SDS011;61307;49.628;-1.624;2024-01-30T12:16:49;3.90;;;1.35;;
73120;SDS011;61307;49.628;-1.624;2024-01-30T12:19:23;3.65;;;1.60;;
73120;SDS011;61307;49.628;-1.624;2024-01-30T12:21:56;4.88;;;1.10;;
73120;SDS011;61307;49.628;-1.624;2024-01-30T12:24:24;4.20;;;1.50;;
73120;SDS011;61307;49.628;-1.624;2024-01-30T12:26:51;2.95;;;1.33;;
73120;SDS011;61307;49.628;-1.624;2024-01-30T12:29:19;2.65;;;1.15;;
73120;SDS011;61307;49.628;-1.624;2024-01-30T12:31:48;3.88;;;1.33;;
73120;SDS011;61307;49.628;-1.624;2024-01-30T12:34:18;3.97;;;1.30;;
73120;SDS011;61307;49.628;-1.624;2024-01-30T12:36:46;7.10;;;1.25;;
73120;SDS011;61307;49.628;-1.624;2024-01-30T12:39:13;3.88;;;1.30;;
73120;SDS011;61307;49.628;-1.624;2024-01-30T12:41:41;3.63;;;1.40;;
73120;SDS011;61307;49.628;-1.624;2024-01-30T12:44:08;5.25;;;2.03;;
73120;SDS011;61307;49.628;-1.624;2024-01-30T12:46:35;12.20;;;1.50;;
73120;SDS011;61307;49.628;-1.624;2024-01-30T12:49:03;3.30;;;1.60;;
73120;SDS011;61307;49.628;-1.624;2024-01-30T12:51:30;5.07;;;1.65;;
73120;SDS011;61307;49.628;-1.624;2024-01-30T12:54:04;9.30;;;1.70;;
73120;SDS011;61307;49.628;-1.624;2024-01-30T12:56:31;4.32;;;1.45;;
73120;SDS011;61307;49.628;-1.624;2024-01-30T12:58:58;10.00;;;1.45;;
73120;SDS011;61307;49.628;-1.624;2024-01-30T13:01:25;7.97;;;1.52;;
73120;SDS011;61307;49.628;-1.624;2024-01-30T13:03:52;3.90;;;1.40;;
73120;SDS011;61307;49.628;-1.624;2024-01-30T13:06:22;4.63;;;1.40;;
73120;SDS011;61307;49.628;-1.624;2024-01-30T13:08:49;5.28;;;1.50;;
73120;SDS011;61307;49.628;-1.624;2024-01-30T13:11:16;5.35;;;1.70;;
73120;SDS011;61307;49.628;-1.624;2024-01-30T13:13:43;5.22;;;1.48;;
73120;SDS011;61307;49.628;-1.624;2024-01-30T13:16:10;8.18;;;1.98;;
73120;SDS011;61307;49.628;-1.624;2024-01-30T13:18:37;6.60;;;1.55;;
73120;SDS011;61307;49.628;-1.624;2024-01-30T13:21:04;6.32;;;1.50;;
73120;SDS011;61307;49.628;-1.624;2024-01-30T13:23:33;3.17;;;1.20;;
73120;SDS011;61307;49.628;-1.624;2024-01-30T13:26:00;5.75;;;1.90;;
73120;SDS011;61307;49.628;-1.624;2024-01-30T13:28:27;6.35;;;1.67;;
73120;SDS011;61307;49.628;-1.624;2024-01-30T13:30:54;6.63;;;1.40;;
73120;SDS011;61307;49.628;-1.624;2024-01-30T13:33:21;5.70;;;1.48;;
73120;SDS011;61307;49.628;-1.624;2024-01-30T13:35:48;5.28;;;1.50;;
73120;SDS011;61307;49.628;-1.624;2024-01-30T13:38:15;5.85;;;1.40;;
73120;SDS011;61307;49.628;-1.624;2024-01-30T13:40:43;4.45;;;1.20;;
73120;SDS011;61307;49.628;-1.624;2024-01-30T13:43:11;7.20;;;1.55;;
73120;SDS011;61307;49.628;-1.624;2024-01-30T13:45:38;8.93;;;1.70;;
73120;SDS011;61307;49.628;-1.624;2024-01-30T13:48:07;6.50;;;1.40;;
73120;SDS011;61307;49.628;-1.624;2024-01-30T13:50:33;4.68;;;1.52;;
73120;SDS011;61307;49.628;-1.624;2024-01-30T13:55:29;7.10;;;1.33;;
73120;SDS011;61307;49.628;-1.624;2024-01-30T13:57:57;7.20;;;1.80;;
73120;SDS011;61307;49.628;-1.624;2024-01-30T14:00:24;5.22;;;1.58;;
73120;SDS011;61307;49.628;-1.624;2024-01-30T14:02:51;9.25;;;1.67;;
73120;SDS011;61307;49.628;-1.624;2024-01-30T14:05:19;9.45;;;1.67;;
73120;SDS011;61307;49.628;-1.624;2024-01-30T14:07:47;13.43;;;1.98;;
73120;SDS011;61307;49.628;-1.624;2024-01-30T14:10:15;4.85;;;1.65;;
73120;SDS011;61307;49.628;-1.624;2024-01-30T14:12:42;5.78;;;1.58;;
73120;SDS011;61307;49.628;-1.624;2024-01-30T14:15:11;4.78;;;1.73;;
73120;SDS011;61307;49.628;-1.624;2024-01-30T14:17:43;4.32;;;1.63;;
73120;SDS011;61307;49.628;-1.624;2024-01-30T14:20:13;6.93;;;1.50;;
73120;SDS011;61307;49.628;-1.624;2024-01-30T14:22:41;3.40;;;1.40;;
73120;SDS011;61307;49.628;-1.624;2024-01-30T14:25:08;2.67;;;1.23;;
73120;SDS011;61307;49.628;-1.624;2024-01-30T14:27:35;4.97;;;1.48;;
73120;SDS011;61307;49.628;-1.624;2024-01-30T14:30:03;7.53;;;1.60;;
73120;SDS011;61307;49.628;-1.624;2024-01-30T14:32:32;6.72;;;1.85;;
73120;SDS011;61307;49.628;-1.624;2024-01-30T14:35:00;6.28;;;1.50;;
73120;SDS011;61307;49.628;-1.624;2024-01-30T14:37:27;7.22;;;1.88;;
73120;SDS011;61307;49.628;-1.624;2024-01-30T14:39:55;7.55;;;1.80;;
73120;SDS011;61307;49.628;-1.624;2024-01-30T14:42:22;6.45;;;1.48;;
73120;SDS011;61307;49.628;-1.624;2024-01-30T14:44:49;6.40;;;1.55;;